sensor_id;sensor_type;location;lat;lon;timestamp;P1;durP1;ratioP1;P2;durP2;ratioP2
11829;SDS011;5972;42.134;24.718;2024-02-16T00:00:09;4.87;;;3.40;;
11829;SDS011;5972;42.134;24.718;2024-02-16T00:02:38;5.50;;;3.73;;
11829;SDS011;5972;42.134;24.718;2024-02-16T00:05:14;4.57;;;3.67;;
11829;SDS011;5972;42.134;24.718;2024-02-16T00:07:44;5.07;;;3.60;;
11829;SDS011;5972;42.134;24.718;2024-02-16T00:10:11;4.13;;;3.43;;
11829;SDS011;5972;42.134;24.718;2024-02-16T00:12:44;5.13;;;3.53;;
11829;SDS011;5972;42.134;24.718;2024-02-16T00:15:11;4.30;;;3.40;;
11829;SDS011;5972;42.134;24.718;2024-02-16T00:17:39;5.27;;;3.57;;
11829;SDS011;5972;42.134;24.718;2024-02-16T00:20:19;4.97;;;3.40;;
11829;SDS011;5972;42.134;24.718;2024-02-16T00:22:49;4.07;;;3.63;;
11829;SDS011;5972;42.134;24.718;2024-02-16T00:25:16;4.70;;;3.77;;
11829;SDS011;5972;42.134;24.718;2024-02-16T00:27:45;3.90;;;3.50;;
11829;SDS011;5972;42.134;24.718;2024-02-16T00:30:13;5.03;;;3.80;;
11829;SDS011;5972;42.134;24.718;2024-02-16T00:32:46;5.30;;;4.17;;
11829;SDS011;5972;42.134;24.718;2024-02-16T00:35:33;5.40;;;3.50;;
11829;SDS011;5972;42.134;24.718;2024-02-16T00:38:08;4.17;;;3.50;;
11829;SDS011;5972;42.134;24.718;2024-02-16T00:40:43;4.20;;;3.77;;
11829;SDS011;5972;42.134;24.718;2024-02-16T00:43:19;5.37;;;4.07;;
11829;SDS011;5972;42.134;24.718;2024-02-16T00:47:50;6.07;;;4.00;;
11829;SDS011;5972;42.134;24.718;2024-02-16T00:48:44;5.87;;;4.00;;
11829;SDS011;5972;42.134;24.718;2024-02-16T00:51:14;8.63;;;4.77;;
11829;SDS011;5972;42.134;24.718;2024-02-16T00:53:58;6.00;;;3.97;;
11829;SDS011;5972;42.134;24.718;2024-02-16T00:56:29;5.80;;;4.30;;
11829;SDS011;5972;42.134;24.718;2024-02-16T00:58:59;6.07;;;4.10;;
11829;SDS011;5972;42.134;24.718;2024-02-16T01:01:28;5.00;;;3.70;;
11829;SDS011;5972;42.134;24.718;2024-02-16T01:03:55;7.37;;;4.00;;
11829;SDS011;5972;42.134;24.718;2024-02-16T01:06:29;5.07;;;3.70;;
11829;SDS011;5972;42.134;24.718;2024-02-16T01:08:56;5.57;;;4.20;;
11829;SDS011;5972;42.134;24.718;2024-02-16T01:11:26;8.13;;;3.77;;
11829;SDS011;5972;42.134;24.718;2024-02-16T01:13:53;5.63;;;3.90;;
11829;SDS011;5972;42.134;24.718;2024-02-16T01:16:22;4.47;;;3.97;;
11829;SDS011;5972;42.134;24.718;2024-02-16T01:18:52;5.13;;;3.60;;
11829;SDS011;5972;42.134;24.718;2024-02-16T01:21:19;5.73;;;3.93;;
11829;SDS011;5972;42.134;24.718;2024-02-16T01:23:48;6.53;;;3.70;;
11829;SDS011;5972;42.134;24.718;2024-02-16T01:26:15;5.87;;;4.00;;
11829;SDS011;5972;42.134;24.718;2024-02-16T01:28:53;3.67;;;3.30;;
11829;SDS011;5972;42.134;24.718;2024-02-16T01:31:31;4.47;;;3.37;;
11829;SDS011;5972;42.134;24.718;2024-02-16T01:34:04;4.90;;;3.37;;
11829;SDS011;5972;42.134;24.718;2024-02-16T01:36:32;4.90;;;3.60;;
11829;SDS011;5972;42.134;24.718;2024-02-16T01:39:02;5.83;;;3.27;;
11829;SDS011;5972;42.134;24.718;2024-02-16T01:41:43;5.40;;;3.67;;
11829;SDS011;5972;42.134;24.718;2024-02-16T01:44:14;4.03;;;3.27;;
11829;SDS011;5972;42.134;24.718;2024-02-16T01:46:42;7.87;;;4.70;;
11829;SDS011;5972;42.134;24.718;2024-02-16T01:49:15;5.63;;;3.93;;
11829;SDS011;5972;42.134;24.718;2024-02-16T01:51:53;5.27;;;3.97;;
11829;SDS011;5972;42.134;24.718;2024-02-16T01:54:28;6.63;;;4.27;;
11829;SDS011;5972;42.134;24.718;2024-02-16T01:56:56;5.30;;;3.90;;
11829;SDS011;5972;42.134;24.718;2024-02-16T01:59:24;5.87;;;4.57;;
11829;SDS011;5972;42.134;24.718;2024-02-16T02:01:52;5.20;;;4.43;;
11829;SDS011;5972;42.134;24.718;2024-02-16T02:04:32;5.70;;;4.47;;
11829;SDS011;5972;42.134;24.718;2024-02-16T02:06:59;8.00;;;4.83;;
11829;SDS011;5972;42.134;24.718;2024-02-16T02:09:51;6.97;;;4.77;;
11829;SDS011;5972;42.134;24.718;2024-02-16T02:12:25;7.60;;;4.43;;
11829;SDS011;5972;42.134;24.718;2024-02-16T02:14:59;6.53;;;4.40;;
11829;SDS011;5972;42.134;24.718;2024-02-16T02:17:28;5.00;;;4.40;;
11829;SDS011;5972;42.134;24.718;2024-02-16T02:20:00;9.30;;;4.57;;
11829;SDS011;5972;42.134;24.718;2024-02-16T02:22:31;5.03;;;4.27;;
11829;SDS011;5972;42.134;24.718;2024-02-16T02:24:59;8.83;;;4.27;;
11829;SDS011;5972;42.134;24.718;2024-02-16T02:27:31;6.17;;;4.30;;
11829;SDS011;5972;42.134;24.718;2024-02-16T02:30:01;7.97;;;4.37;;
11829;SDS011;5972;42.134;24.718;2024-02-16T02:32:40;7.43;;;4.03;;
11829;SDS011;5972;42.134;24.718;2024-02-16T02:35:08;5.17;;;3.57;;
11829;SDS011;5972;42.134;24.718;2024-02-16T02:37:38;4.13;;;3.73;;
11829;SDS011;5972;42.134;24.718;2024-02-16T02:40:10;7.83;;;4.10;;
11829;SDS011;5972;42.134;24.718;2024-02-16T02:42:49;8.70;;;3.93;;
11829;SDS011;5972;42.134;24.718;2024-02-16T02:45:16;7.57;;;4.27;;
11829;SDS011;5972;42.134;24.718;2024-02-16T02:47:49;7.80;;;4.37;;
11829;SDS011;5972;42.134;24.718;2024-02-16T02:50:16;7.13;;;4.77;;
11829;SDS011;5972;42.134;24.718;2024-02-16T02:52:47;5.77;;;4.87;;
11829;SDS011;5972;42.134;24.718;2024-02-16T02:55:21;9.40;;;5.20;;
11829;SDS011;5972;42.134;24.718;2024-02-16T02:57:48;8.57;;;5.03;;
11829;SDS011;5972;42.134;24.718;2024-02-16T03:00:15;6.60;;;5.07;;
11829;SDS011;5972;42.134;24.718;2024-02-16T03:02:43;8.40;;;4.90;;
11829;SDS011;5972;42.134;24.718;2024-02-16T03:05:14;7.73;;;4.80;;
11829;SDS011;5972;42.134;24.718;2024-02-16T03:07:42;7.83;;;4.80;;
11829;SDS011;5972;42.134;24.718;2024-02-16T03:10:14;6.27;;;4.60;;
11829;SDS011;5972;42.134;24.718;2024-02-16T03:12:53;7.73;;;4.47;;
11829;SDS011;5972;42.134;24.718;2024-02-16T03:15:22;6.80;;;4.47;;
11829;SDS011;5972;42.134;24.718;2024-02-16T03:17:58;6.00;;;3.97;;
11829;SDS011;5972;42.134;24.718;2024-02-16T03:20:37;4.83;;;4.27;;
11829;SDS011;5972;42.134;24.718;2024-02-16T03:23:04;6.20;;;4.40;;
11829;SDS011;5972;42.134;24.718;2024-02-16T03:25:36;6.30;;;4.03;;
11829;SDS011;5972;42.134;24.718;2024-02-16T03:28:08;7.03;;;4.73;;
11829;SDS011;5972;42.134;24.718;2024-02-16T03:30:41;5.23;;;4.70;;
11829;SDS011;5972;42.134;24.718;2024-02-16T03:33:12;6.90;;;4.40;;
11829;SDS011;5972;42.134;24.718;2024-02-16T03:35:44;5.93;;;4.40;;
11829;SDS011;5972;42.134;24.718;2024-02-16T03:38:21;6.03;;;4.60;;
11829;SDS011;5972;42.134;24.718;2024-02-16T03:40:51;6.80;;;4.30;;
11829;SDS011;5972;42.134;24.718;2024-02-16T03:43:18;7.67;;;3.80;;
11829;SDS011;5972;42.134;24.718;2024-02-16T03:45:47;5.53;;;3.93;;
11829;SDS011;5972;42.134;24.718;2024-02-16T03:48:16;6.30;;;4.30;;
11829;SDS011;5972;42.134;24.718;2024-02-16T03:50:55;10.80;;;4.40;;
11829;SDS011;5972;42.134;24.718;2024-02-16T03:53:28;7.40;;;4.60;;
11829;SDS011;5972;42.134;24.718;2024-02-16T03:56:00;4.90;;;4.30;;
11829;SDS011;5972;42.134;24.718;2024-02-16T03:58:28;7.57;;;4.63;;
11829;SDS011;5972;42.134;24.718;2024-02-16T04:00:57;5.13;;;4.30;;
11829;SDS011;5972;42.134;24.718;2024-02-16T04:03:27;7.37;;;5.07;;
11829;SDS011;5972;42.134;24.718;2024-02-16T04:05:54;7.03;;;4.77;;
11829;SDS011;5972;42.134;24.718;2024-02-16T04:08:21;6.10;;;4.43;;
11829;SDS011;5972;42.134;24.718;2024-02-16T04:10:50;4.80;;;4.00;;
11829;SDS011;5972;42.134;24.718;2024-02-16T04:13:24;4.33;;;3.93;;
11829;SDS011;5972;42.134;24.718;2024-02-16T04:15:54;5.30;;;4.20;;
11829;SDS011;5972;42.134;24.718;2024-02-16T04:18:24;5.53;;;4.20;;
11829;SDS011;5972;42.134;24.718;2024-02-16T04:20:51;6.60;;;4.00;;
11829;SDS011;5972;42.134;24.718;2024-02-16T04:23:21;5.57;;;4.20;;
11829;SDS011;5972;42.134;24.718;2024-02-16T04:25:52;5.93;;;3.97;;
11829;SDS011;5972;42.134;24.718;2024-02-16T04:28:31;6.23;;;4.30;;
11829;SDS011;5972;42.134;24.718;2024-02-16T04:31:03;5.20;;;4.27;;
11829;SDS011;5972;42.134;24.718;2024-02-16T04:33:31;4.90;;;4.27;;
11829;SDS011;5972;42.134;24.718;2024-02-16T04:35:59;9.43;;;4.30;;
11829;SDS011;5972;42.134;24.718;2024-02-16T04:38:27;4.37;;;3.83;;
11829;SDS011;5972;42.134;24.718;2024-02-16T04:40:57;6.87;;;4.47;;
11829;SDS011;5972;42.134;24.718;2024-02-16T04:46:23;4.80;;;4.27;;
11829;SDS011;5972;42.134;24.718;2024-02-16T04:48:52;8.73;;;4.67;;
11829;SDS011;5972;42.134;24.718;2024-02-16T04:51:23;5.63;;;4.27;;
11829;SDS011;5972;42.134;24.718;2024-02-16T04:53:51;7.10;;;4.23;;
11829;SDS011;5972;42.134;24.718;2024-02-16T04:56:33;5.23;;;4.27;;
11829;SDS011;5972;42.134;24.718;2024-02-16T04:59:17;5.77;;;4.40;;
11829;SDS011;5972;42.134;24.718;2024-02-16T05:01:54;10.07;;;4.67;;
11829;SDS011;5972;42.134;24.718;2024-02-16T05:04:32;7.40;;;4.73;;
11829;SDS011;5972;42.134;24.718;2024-02-16T05:07:08;7.53;;;4.57;;
11829;SDS011;5972;42.134;24.718;2024-02-16T05:09:42;9.43;;;5.33;;
11829;SDS011;5972;42.134;24.718;2024-02-16T05:12:13;7.27;;;4.80;;
11829;SDS011;5972;42.134;24.718;2024-02-16T05:14:52;6.30;;;4.33;;
11829;SDS011;5972;42.134;24.718;2024-02-16T05:17:46;8.53;;;4.27;;
11829;SDS011;5972;42.134;24.718;2024-02-16T05:20:28;5.33;;;4.37;;
11829;SDS011;5972;42.134;24.718;2024-02-16T05:23:48;7.23;;;4.00;;
11829;SDS011;5972;42.134;24.718;2024-02-16T05:26:18;7.67;;;4.47;;
11829;SDS011;5972;42.134;24.718;2024-02-16T05:29:04;11.40;;;4.37;;
11829;SDS011;5972;42.134;24.718;2024-02-16T05:31:53;9.87;;;6.37;;
11829;SDS011;5972;42.134;24.718;2024-02-16T05:34:49;6.43;;;4.80;;
11829;SDS011;5972;42.134;24.718;2024-02-16T05:37:29;5.20;;;4.43;;
11829;SDS011;5972;42.134;24.718;2024-02-16T05:40:00;9.67;;;4.80;;
11829;SDS011;5972;42.134;24.718;2024-02-16T05:42:45;6.73;;;4.40;;
11829;SDS011;5972;42.134;24.718;2024-02-16T05:45:23;6.23;;;4.43;;
11829;SDS011;5972;42.134;24.718;2024-02-16T05:47:56;8.27;;;4.87;;
11829;SDS011;5972;42.134;24.718;2024-02-16T05:50:24;5.37;;;4.53;;
11829;SDS011;5972;42.134;24.718;2024-02-16T05:52:57;5.83;;;4.77;;
11829;SDS011;5972;42.134;24.718;2024-02-16T05:55:44;7.87;;;4.57;;
11829;SDS011;5972;42.134;24.718;2024-02-16T05:58:16;6.97;;;4.60;;
11829;SDS011;5972;42.134;24.718;2024-02-16T06:00:43;6.67;;;4.80;;
11829;SDS011;5972;42.134;24.718;2024-02-16T06:03:18;4.97;;;4.47;;
11829;SDS011;5972;42.134;24.718;2024-02-16T06:05:57;7.37;;;5.30;;
11829;SDS011;5972;42.134;24.718;2024-02-16T06:08:27;5.27;;;4.10;;
11829;SDS011;5972;42.134;24.718;2024-02-16T06:10:59;6.17;;;4.20;;
11829;SDS011;5972;42.134;24.718;2024-02-16T06:13:34;8.37;;;4.70;;
11829;SDS011;5972;42.134;24.718;2024-02-16T06:16:05;7.30;;;4.50;;
11829;SDS011;5972;42.134;24.718;2024-02-16T06:18:37;5.73;;;4.30;;
11829;SDS011;5972;42.134;24.718;2024-02-16T06:38:15;7.18;;;3.83;;
11829;SDS011;5972;42.134;24.718;2024-02-16T06:41:32;8.53;;;4.40;;
11829;SDS011;5972;42.134;24.718;2024-02-16T06:44:20;8.40;;;4.32;;
11829;SDS011;5972;42.134;24.718;2024-02-16T06:47:05;6.13;;;4.05;;
11829;SDS011;5972;42.134;24.718;2024-02-16T06:50:40;7.65;;;4.30;;
11829;SDS011;5972;42.134;24.718;2024-02-16T07:19:02;9.60;;;5.28;;
11829;SDS011;5972;42.134;24.718;2024-02-16T07:22:06;8.00;;;4.32;;
11829;SDS011;5972;42.134;24.718;2024-02-16T07:25:18;6.07;;;4.18;;
11829;SDS011;5972;42.134;24.718;2024-02-16T07:31:46;6.80;;;3.88;;
11829;SDS011;5972;42.134;24.718;2024-02-16T07:38:43;15.02;;;4.38;;
11829;SDS011;5972;42.134;24.718;2024-02-16T07:51:06;5.03;;;3.88;;
11829;SDS011;5972;42.134;24.718;2024-02-16T07:58:35;5.88;;;3.92;;
11829;SDS011;5972;42.134;24.718;2024-02-16T08:01:45;7.32;;;3.95;;
11829;SDS011;5972;42.134;24.718;2024-02-16T08:04:56;6.43;;;4.13;;
11829;SDS011;5972;42.134;24.718;2024-02-16T08:11:02;8.15;;;4.03;;
11829;SDS011;5972;42.134;24.718;2024-02-16T08:17:14;7.57;;;4.90;;
11829;SDS011;5972;42.134;24.718;2024-02-16T08:19:51;9.52;;;4.50;;
11829;SDS011;5972;42.134;24.718;2024-02-16T08:22:28;5.82;;;4.90;;
11829;SDS011;5972;42.134;24.718;2024-02-16T08:34:41;10.27;;;5.60;;
11829;SDS011;5972;42.134;24.718;2024-02-16T08:37:27;7.55;;;5.07;;
11829;SDS011;5972;42.134;24.718;2024-02-16T08:43:37;8.05;;;4.95;;
11829;SDS011;5972;42.134;24.718;2024-02-16T08:46:49;10.27;;;4.78;;
11829;SDS011;5972;42.134;24.718;2024-02-16T08:49:30;5.15;;;3.97;;
11829;SDS011;5972;42.134;24.718;2024-02-16T08:55:30;9.73;;;4.32;;
11829;SDS011;5972;42.134;24.718;2024-02-16T08:58:09;6.07;;;4.05;;
11829;SDS011;5972;42.134;24.718;2024-02-16T09:01:07;5.25;;;4.60;;
11829;SDS011;5972;42.134;24.718;2024-02-16T09:04:16;6.50;;;4.20;;
11829;SDS011;5972;42.134;24.718;2024-02-16T09:10:38;7.85;;;4.22;;
11829;SDS011;5972;42.134;24.718;2024-02-16T09:13:26;6.03;;;4.55;;
11829;SDS011;5972;42.134;24.718;2024-02-16T09:16:07;5.82;;;4.57;;
11829;SDS011;5972;42.134;24.718;2024-02-16T09:18:44;6.22;;;4.72;;
11829;SDS011;5972;42.134;24.718;2024-02-16T09:21:42;7.22;;;4.38;;
11829;SDS011;5972;42.134;24.718;2024-02-16T09:24:30;14.93;;;4.65;;
11829;SDS011;5972;42.134;24.718;2024-02-16T09:27:34;6.22;;;3.95;;
11829;SDS011;5972;42.134;24.718;2024-02-16T09:30:22;5.03;;;4.00;;
11829;SDS011;5972;42.134;24.718;2024-02-16T09:33:32;4.20;;;3.80;;
11829;SDS011;5972;42.134;24.718;2024-02-16T09:36:06;5.95;;;3.70;;
11829;SDS011;5972;42.134;24.718;2024-02-16T09:38:49;3.85;;;3.55;;
11829;SDS011;5972;42.134;24.718;2024-02-16T09:41:32;3.55;;;3.25;;
11829;SDS011;5972;42.134;24.718;2024-02-16T09:44:18;8.00;;;3.13;;
11829;SDS011;5972;42.134;24.718;2024-02-16T09:49:49;6.57;;;3.30;;
11829;SDS011;5972;42.134;24.718;2024-02-16T09:52:57;3.63;;;3.20;;
11829;SDS011;5972;42.134;24.718;2024-02-16T09:55:18;7.35;;;3.45;;
11829;SDS011;5972;42.134;24.718;2024-02-16T09:58:01;3.53;;;3.22;;
11829;SDS011;5972;42.134;24.718;2024-02-16T10:03:48;3.10;;;2.85;;
11829;SDS011;5972;42.134;24.718;2024-02-16T10:06:29;3.97;;;3.13;;
11829;SDS011;5972;42.134;24.718;2024-02-16T10:09:07;5.03;;;2.72;;
11829;SDS011;5972;42.134;24.718;2024-02-16T10:11:44;3.17;;;2.60;;
11829;SDS011;5972;42.134;24.718;2024-02-16T10:14:24;4.65;;;3.03;;
11829;SDS011;5972;42.134;24.718;2024-02-16T10:17:04;5.47;;;2.90;;
11829;SDS011;5972;42.134;24.718;2024-02-16T10:19:54;8.43;;;2.92;;
11829;SDS011;5972;42.134;24.718;2024-02-16T10:22:40;5.72;;;2.80;;
11829;SDS011;5972;42.134;24.718;2024-02-16T10:25:35;2.65;;;2.45;;
11829;SDS011;5972;42.134;24.718;2024-02-16T10:31:07;2.85;;;2.50;;
11829;SDS011;5972;42.134;24.718;2024-02-16T10:31:53;2.78;;;2.58;;
11829;SDS011;5972;42.134;24.718;2024-02-16T10:34:36;2.65;;;2.25;;
11829;SDS011;5972;42.134;24.718;2024-02-16T10:37:07;3.17;;;2.67;;
11829;SDS011;5972;42.134;24.718;2024-02-16T10:39:49;3.22;;;2.35;;
11829;SDS011;5972;42.134;24.718;2024-02-16T10:42:46;2.45;;;2.08;;
11829;SDS011;5972;42.134;24.718;2024-02-16T10:45:20;3.33;;;2.55;;
11829;SDS011;5972;42.134;24.718;2024-02-16T10:48:28;5.72;;;2.63;;
11829;SDS011;5972;42.134;24.718;2024-02-16T10:51:05;3.83;;;2.80;;
11829;SDS011;5972;42.134;24.718;2024-02-16T10:57:22;5.82;;;2.80;;
11829;SDS011;5972;42.134;24.718;2024-02-16T10:59:59;3.40;;;3.10;;
11829;SDS011;5972;42.134;24.718;2024-02-16T11:02:53;5.53;;;3.63;;
11829;SDS011;5972;42.134;24.718;2024-02-16T11:05:44;4.15;;;3.00;;
11829;SDS011;5972;42.134;24.718;2024-02-16T11:26:24;8.38;;;2.28;;
11829;SDS011;5972;42.134;24.718;2024-02-16T11:32:27;2.53;;;2.33;;
11829;SDS011;5972;42.134;24.718;2024-02-16T11:36:34;4.95;;;2.03;;
11829;SDS011;5972;42.134;24.718;2024-02-16T11:38:57;1.90;;;1.80;;
11829;SDS011;5972;42.134;24.718;2024-02-16T11:41:43;1.80;;;1.70;;
11829;SDS011;5972;42.134;24.718;2024-02-16T11:44:49;2.10;;;2.00;;
11829;SDS011;5972;42.134;24.718;2024-02-16T11:47:34;1.60;;;1.50;;
11829;SDS011;5972;42.134;24.718;2024-02-16T11:52:26;2.83;;;1.90;;
11829;SDS011;5972;42.134;24.718;2024-02-16T11:57:05;2.25;;;2.05;;
11829;SDS011;5972;42.134;24.718;2024-02-16T12:00:12;3.25;;;2.08;;
11829;SDS011;5972;42.134;24.718;2024-02-16T12:03:21;2.88;;;1.90;;
11829;SDS011;5972;42.134;24.718;2024-02-16T12:06:08;2.17;;;1.98;;
11829;SDS011;5972;42.134;24.718;2024-02-16T12:09:35;2.00;;;1.90;;
11829;SDS011;5972;42.134;24.718;2024-02-16T12:12:24;1.77;;;1.67;;
11829;SDS011;5972;42.134;24.718;2024-02-16T12:14:57;2.03;;;1.90;;
11829;SDS011;5972;42.134;24.718;2024-02-16T12:17:40;3.90;;;2.10;;
11829;SDS011;5972;42.134;24.718;2024-02-16T12:30:38;5.70;;;2.10;;
11829;SDS011;5972;42.134;24.718;2024-02-16T12:33:08;3.97;;;1.98;;
11829;SDS011;5972;42.134;24.718;2024-02-16T12:35:49;4.00;;;2.28;;
11829;SDS011;5972;42.134;24.718;2024-02-16T12:38:43;2.25;;;2.03;;
11829;SDS011;5972;42.134;24.718;2024-02-16T12:41:50;3.78;;;2.53;;
11829;SDS011;5972;42.134;24.718;2024-02-16T12:58:08;2.70;;;2.50;;
11829;SDS011;5972;42.134;24.718;2024-02-16T13:00:41;2.83;;;2.10;;
11829;SDS011;5972;42.134;24.718;2024-02-16T13:03:15;2.40;;;2.20;;
11829;SDS011;5972;42.134;24.718;2024-02-16T13:05:56;2.58;;;2.33;;
11829;SDS011;5972;42.134;24.718;2024-02-16T13:08:53;3.35;;;2.20;;
11829;SDS011;5972;42.134;24.718;2024-02-16T13:11:38;4.95;;;2.40;;
11829;SDS011;5972;42.134;24.718;2024-02-16T13:14:08;6.78;;;2.58;;
11829;SDS011;5972;42.134;24.718;2024-02-16T13:16:46;5.78;;;2.42;;
11829;SDS011;5972;42.134;24.718;2024-02-16T13:19:17;4.50;;;2.70;;
11829;SDS011;5972;42.134;24.718;2024-02-16T13:21:51;4.53;;;2.17;;
11829;SDS011;5972;42.134;24.718;2024-02-16T13:24:19;3.47;;;2.10;;
11829;SDS011;5972;42.134;24.718;2024-02-16T13:26:55;3.10;;;2.30;;
11829;SDS011;5972;42.134;24.718;2024-02-16T13:29:58;3.80;;;2.83;;
11829;SDS011;5972;42.134;24.718;2024-02-16T13:33:11;2.53;;;2.30;;
11829;SDS011;5972;42.134;24.718;2024-02-16T13:36:06;2.42;;;2.22;;
11829;SDS011;5972;42.134;24.718;2024-02-16T13:39:12;2.58;;;2.30;;
11829;SDS011;5972;42.134;24.718;2024-02-16T13:42:06;3.45;;;2.40;;
11829;SDS011;5972;42.134;24.718;2024-02-16T13:45:05;2.42;;;2.22;;
11829;SDS011;5972;42.134;24.718;2024-02-16T13:47:50;2.53;;;2.33;;
11829;SDS011;5972;42.134;24.718;2024-02-16T13:50:26;5.32;;;2.75;;
11829;SDS011;5972;42.134;24.718;2024-02-16T13:52:59;3.20;;;2.45;;
11829;SDS011;5972;42.134;24.718;2024-02-16T13:55:28;4.28;;;2.88;;
11829;SDS011;5972;42.134;24.718;2024-02-16T13:58:14;3.60;;;2.33;;
11829;SDS011;5972;42.134;24.718;2024-02-16T14:00:42;3.35;;;2.60;;
11829;SDS011;5972;42.134;24.718;2024-02-16T14:03:45;5.45;;;3.00;;
11829;SDS011;5972;42.134;24.718;2024-02-16T14:06:31;6.90;;;5.10;;
11829;SDS011;5972;42.134;24.718;2024-02-16T14:09:21;5.95;;;4.93;;
11829;SDS011;5972;42.134;24.718;2024-02-16T14:18:41;3.03;;;2.72;;
11829;SDS011;5972;42.134;24.718;2024-02-16T14:21:21;4.63;;;3.17;;
11829;SDS011;5972;42.134;24.718;2024-02-16T14:23:59;5.70;;;2.90;;
11829;SDS011;5972;42.134;24.718;2024-02-16T14:26:42;2.78;;;2.47;;
11829;SDS011;5972;42.134;24.718;2024-02-16T14:29:17;3.10;;;2.60;;
11829;SDS011;5972;42.134;24.718;2024-02-16T14:31:50;9.40;;;2.95;;
11829;SDS011;5972;42.134;24.718;2024-02-16T14:34:35;7.45;;;2.97;;
11829;SDS011;5972;42.134;24.718;2024-02-16T14:37:13;3.20;;;2.83;;
11829;SDS011;5972;42.134;24.718;2024-02-16T14:39:59;4.15;;;2.90;;
11829;SDS011;5972;42.134;24.718;2024-02-16T14:42:42;7.50;;;3.25;;
11829;SDS011;5972;42.134;24.718;2024-02-16T14:45:38;5.53;;;3.60;;
11829;SDS011;5972;42.134;24.718;2024-02-16T14:51:05;5.28;;;3.20;;
11829;SDS011;5972;42.134;24.718;2024-02-16T14:57:15;6.32;;;3.15;;
11829;SDS011;5972;42.134;24.718;2024-02-16T14:59:53;3.50;;;2.85;;
11829;SDS011;5972;42.134;24.718;2024-02-16T15:02:40;5.68;;;3.58;;
11829;SDS011;5972;42.134;24.718;2024-02-16T15:05:40;5.38;;;3.05;;
11829;SDS011;5972;42.134;24.718;2024-02-16T15:08:15;7.25;;;3.45;;
11829;SDS011;5972;42.134;24.718;2024-02-16T15:10:45;9.63;;;4.00;;
11829;SDS011;5972;42.134;24.718;2024-02-16T15:13:24;4.38;;;3.47;;
11829;SDS011;5972;42.134;24.718;2024-02-16T15:15:58;4.53;;;3.78;;
11829;SDS011;5972;42.134;24.718;2024-02-16T15:20:10;6.25;;;3.80;;
11829;SDS011;5972;42.134;24.718;2024-02-16T15:25:14;3.45;;;3.15;;
11829;SDS011;5972;42.134;24.718;2024-02-16T15:28:18;6.13;;;3.63;;
11829;SDS011;5972;42.134;24.718;2024-02-16T15:31:05;7.47;;;4.25;;
11829;SDS011;5972;42.134;24.718;2024-02-16T16:40:14;5.40;;;4.75;;
11829;SDS011;5972;42.134;24.718;2024-02-16T16:46:24;6.60;;;4.75;;
11829;SDS011;5972;42.134;24.718;2024-02-16T16:49:20;10.85;;;5.50;;
11829;SDS011;5972;42.134;24.718;2024-02-16T16:55:49;7.55;;;5.05;;
11829;SDS011;5972;42.134;24.718;2024-02-16T16:59:08;7.50;;;5.97;;
11829;SDS011;5972;42.134;24.718;2024-02-16T17:01:46;9.15;;;6.07;;
11829;SDS011;5972;42.134;24.718;2024-02-16T17:05:08;10.65;;;7.32;;
11829;SDS011;5972;42.134;24.718;2024-02-16T17:07:46;8.30;;;5.68;;
11829;SDS011;5972;42.134;24.718;2024-02-16T17:11:00;12.73;;;7.55;;
11829;SDS011;5972;42.134;24.718;2024-02-16T17:13:36;10.15;;;6.10;;
11829;SDS011;5972;42.134;24.718;2024-02-16T17:16:35;5.85;;;5.13;;
11829;SDS011;5972;42.134;24.718;2024-02-16T17:19:43;6.90;;;4.78;;
11829;SDS011;5972;42.134;24.718;2024-02-16T17:22:51;7.20;;;5.35;;
11829;SDS011;5972;42.134;24.718;2024-02-16T17:25:27;11.00;;;4.82;;
11829;SDS011;5972;42.134;24.718;2024-02-16T17:28:16;5.50;;;4.15;;
11829;SDS011;5972;42.134;24.718;2024-02-16T17:34:13;8.93;;;6.93;;
11829;SDS011;5972;42.134;24.718;2024-02-16T17:37:19;11.73;;;6.60;;
11829;SDS011;5972;42.134;24.718;2024-02-16T17:40:16;7.82;;;6.30;;
11829;SDS011;5972;42.134;24.718;2024-02-16T17:42:47;5.55;;;4.82;;
11829;SDS011;5972;42.134;24.718;2024-02-16T17:45:18;5.78;;;5.15;;
11829;SDS011;5972;42.134;24.718;2024-02-16T17:48:06;12.93;;;5.25;;
11829;SDS011;5972;42.134;24.718;2024-02-16T17:50:55;9.75;;;5.60;;
11829;SDS011;5972;42.134;24.718;2024-02-16T17:53:25;9.82;;;6.78;;
11829;SDS011;5972;42.134;24.718;2024-02-16T17:56:14;9.88;;;7.10;;
11829;SDS011;5972;42.134;24.718;2024-02-16T17:58:42;11.63;;;8.50;;
11829;SDS011;5972;42.134;24.718;2024-02-16T18:01:10;9.35;;;7.32;;
11829;SDS011;5972;42.134;24.718;2024-02-16T18:03:38;7.20;;;5.90;;
11829;SDS011;5972;42.134;24.718;2024-02-16T18:06:05;12.02;;;7.22;;
11829;SDS011;5972;42.134;24.718;2024-02-16T18:08:36;10.85;;;6.82;;
11829;SDS011;5972;42.134;24.718;2024-02-16T18:11:17;12.20;;;8.18;;
11829;SDS011;5972;42.134;24.718;2024-02-16T18:13:48;10.70;;;7.28;;
11829;SDS011;5972;42.134;24.718;2024-02-16T18:16:22;7.93;;;6.18;;
11829;SDS011;5972;42.134;24.718;2024-02-16T18:18:54;8.07;;;6.03;;
11829;SDS011;5972;42.134;24.718;2024-02-16T18:26:42;8.02;;;6.28;;
11829;SDS011;5972;42.134;24.718;2024-02-16T18:32:03;6.55;;;5.78;;
11829;SDS011;5972;42.134;24.718;2024-02-16T18:35:39;8.73;;;5.80;;
11829;SDS011;5972;42.134;24.718;2024-02-16T18:38:06;6.37;;;4.90;;
11829;SDS011;5972;42.134;24.718;2024-02-16T18:41:04;7.57;;;5.95;;
11829;SDS011;5972;42.134;24.718;2024-02-16T18:44:29;6.47;;;5.72;;
11829;SDS011;5972;42.134;24.718;2024-02-16T18:47:21;10.47;;;7.80;;
11829;SDS011;5972;42.134;24.718;2024-02-16T18:50:08;8.23;;;5.93;;
11829;SDS011;5972;42.134;24.718;2024-02-16T18:52:37;7.20;;;6.43;;
11829;SDS011;5972;42.134;24.718;2024-02-16T18:55:06;8.60;;;5.93;;
11829;SDS011;5972;42.134;24.718;2024-02-16T18:57:35;7.40;;;5.93;;
11829;SDS011;5972;42.134;24.718;2024-02-16T19:00:07;7.07;;;5.53;;
11829;SDS011;5972;42.134;24.718;2024-02-16T19:02:42;6.37;;;5.40;;
11829;SDS011;5972;42.134;24.718;2024-02-16T19:05:16;5.93;;;5.10;;
11829;SDS011;5972;42.134;24.718;2024-02-16T19:07:52;8.17;;;5.77;;
11829;SDS011;5972;42.134;24.718;2024-02-16T19:10:26;8.27;;;5.30;;
11829;SDS011;5972;42.134;24.718;2024-02-16T19:12:59;8.23;;;5.90;;
11829;SDS011;5972;42.134;24.718;2024-02-16T19:15:44;10.15;;;7.13;;
11829;SDS011;5972;42.134;24.718;2024-02-16T19:21:37;10.00;;;7.50;;
11829;SDS011;5972;42.134;24.718;2024-02-16T19:24:37;9.93;;;7.53;;
11829;SDS011;5972;42.134;24.718;2024-02-16T19:27:07;9.53;;;6.53;;
11829;SDS011;5972;42.134;24.718;2024-02-16T19:29:36;12.53;;;8.30;;
11829;SDS011;5972;42.134;24.718;2024-02-16T19:32:25;10.30;;;7.77;;
11829;SDS011;5972;42.134;24.718;2024-02-16T19:35:12;9.03;;;7.30;;
11829;SDS011;5972;42.134;24.718;2024-02-16T19:37:41;10.93;;;7.03;;
11829;SDS011;5972;42.134;24.718;2024-02-16T19:40:22;8.40;;;6.23;;
11829;SDS011;5972;42.134;24.718;2024-02-16T19:43:11;8.37;;;6.70;;
11829;SDS011;5972;42.134;24.718;2024-02-16T19:45:49;8.77;;;7.60;;
11829;SDS011;5972;42.134;24.718;2024-02-16T19:48:29;10.67;;;7.90;;
11829;SDS011;5972;42.134;24.718;2024-02-16T19:51:10;9.30;;;7.00;;
11829;SDS011;5972;42.134;24.718;2024-02-16T19:53:47;9.87;;;7.97;;
11829;SDS011;5972;42.134;24.718;2024-02-16T19:56:15;10.97;;;7.67;;
11829;SDS011;5972;42.134;24.718;2024-02-16T19:58:44;10.07;;;7.23;;
11829;SDS011;5972;42.134;24.718;2024-02-16T20:01:15;13.00;;;8.20;;
11829;SDS011;5972;42.134;24.718;2024-02-16T20:03:47;9.20;;;7.17;;
11829;SDS011;5972;42.134;24.718;2024-02-16T20:06:31;11.63;;;7.90;;
11829;SDS011;5972;42.134;24.718;2024-02-16T20:09:00;10.10;;;8.20;;
11829;SDS011;5972;42.134;24.718;2024-02-16T20:11:30;10.37;;;7.63;;
11829;SDS011;5972;42.134;24.718;2024-02-16T20:13:59;9.30;;;7.97;;
11829;SDS011;5972;42.134;24.718;2024-02-16T20:16:31;12.07;;;9.37;;
11829;SDS011;5972;42.134;24.718;2024-02-16T20:19:06;8.37;;;7.13;;
11829;SDS011;5972;42.134;24.718;2024-02-16T20:24:40;7.83;;;6.57;;